Time;durP1;ratioP1;P1;durP2;ratioP2;P2;SDS_P1;SDS_P2;PMS_P1;PMS_P2;Temp;Humidity;BMP_temperature;BMP_pressure;BME280_temperature;BME280_humidity;BME280_pressure;Samples;Min_cycle;Max_cycle;Signal;HPM_P1;HPM_P2
2023/06/06 00:02:11;;;;;;;12.52;6.25;;;;;;;19.53;71.57;99147.41;4983896;28;20198;-77
2023/06/06 00:04:40;;;;;;;6.47;3.25;;;;;;;19.05;76.65;99148.66;4993314;28;20200;-77
2023/06/06 00:07:12;;;;;;;4.30;3.20;;;;;;;19.03;77.47;99147.97;5026729;28;20205;-77
2023/06/06 00:09:42;;;;;;;5.05;3.05;;;;;;;19.10;77.31;99146.34;5028185;28;20194;-77
2023/06/06 00:12:12;;;;;;;4.35;3.13;;;;;;;18.95;79.07;99142.50;5028160;28;20209;-77
2023/06/06 00:14:42;;;;;;;5.20;3.28;;;;;;;18.72;81.53;99136.69;4973790;28;20201;-77
2023/06/06 00:17:12;;;;;;;6.53;3.22;;;;;;;18.81;82.00;99147.38;5030533;28;20209;-77
2023/06/06 00:19:42;;;;;;;6.32;3.15;;;;;;;18.74;81.70;99140.09;5025993;28;20281;-77
2023/06/06 00:22:11;;;;;;;7.97;3.93;;;;;;;18.77;79.23;99140.63;5024055;28;20194;-77
2023/06/06 00:24:39;;;;;;;8.75;3.85;;;;;;;18.53;79.93;99143.84;5026963;28;20217;-77
2023/06/06 00:27:09;;;;;;;6.63;3.90;;;;;;;18.53;79.97;99133.13;4998905;28;20241;-78
2023/06/06 00:29:38;;;;;;;6.43;3.05;;;;;;;18.25;81.74;99134.94;5021746;28;20201;-77
2023/06/06 00:32:07;;;;;;;7.00;3.70;;;;;;;18.13;83.63;99138.78;5023862;28;20198;-77
2023/06/06 00:34:35;;;;;;;5.45;3.60;;;;;;;18.09;85.00;99137.41;5024058;28;20209;-77
2023/06/06 00:37:04;;;;;;;5.72;3.03;;;;;;;18.08;84.77;99140.22;5025909;28;20276;-77
2023/06/06 00:39:33;;;;;;;6.20;3.33;;;;;;;18.00;84.88;99135.59;5022970;28;20302;-77
2023/06/06 00:42:03;;;;;;;4.90;2.92;;;;;;;17.95;86.45;99132.50;5025082;28;20209;-77
2023/06/06 00:44:32;;;;;;;4.80;2.80;;;;;;;17.84;88.27;99135.34;5028638;28;20208;-77
2023/06/06 00:47:03;;;;;;;4.30;3.10;;;;;;;17.78;88.75;99135.94;5023946;28;20282;-77
2023/06/06 00:49:32;;;;;;;4.33;2.83;;;;;;;17.79;88.73;99141.16;5025961;28;20291;-77
2023/06/06 00:52:03;;;;;;;4.40;2.80;;;;;;;17.74;87.64;99138.88;5030090;28;20205;-77
2023/06/06 00:54:33;;;;;;;5.70;2.97;;;;;;;17.85;86.50;99129.84;5023592;28;20197;-77
2023/06/06 00:57:03;;;;;;;5.23;2.97;;;;;;;17.97;85.20;99134.06;5027003;28;20221;-77
2023/06/06 00:59:33;;;;;;;4.30;2.70;;;;;;;18.00;84.73;99131.06;5023596;28;20225;-77
2023/06/06 01:02:04;;;;;;;5.60;3.10;;;;;;;18.05;83.83;99133.34;4997138;28;20197;-77
2023/06/06 01:04:32;;;;;;;6.03;2.90;;;;;;;18.07;84.28;99139.38;5026140;28;20190;-77
2023/06/06 01:07:01;;;;;;;4.43;3.00;;;;;;;18.01;84.72;99139.97;5024515;28;20198;-77
2023/06/06 01:09:29;;;;;;;5.73;3.10;;;;;;;17.94;86.35;99141.53;4946196;29;20204;-77
2023/06/06 01:12:06;;;;;;;5.63;2.90;;;;;;;17.90;85.11;99146.34;4942769;29;20283;-77
2023/06/06 01:14:48;;;;;;;5.63;2.93;;;;;;;17.93;83.74;99140.69;4942105;29;20211;-77
2023/06/06 01:17:18;;;;;;;5.47;2.77;;;;;;;17.91;82.04;99145.34;4947501;29;20255;-77
2023/06/06 01:19:49;;;;;;;4.60;2.60;;;;;;;17.98;80.72;99140.25;4950020;29;20220;-77
2023/06/06 01:22:22;;;;;;;5.70;2.87;;;;;;;17.94;80.84;99138.84;4947638;29;20198;-77
2023/06/06 01:24:54;;;;;;;3.40;2.70;;;;;;;17.84;82.48;99140.69;4952309;29;20292;-77
2023/06/06 01:27:22;;;;;;;4.67;2.90;;;;;;;17.67;85.00;99143.13;4975080;28;20228;-77
2023/06/06 01:29:51;;;;;;;6.00;3.13;;;;;;;17.52;85.83;99136.50;5001769;28;20203;-77
2023/06/06 01:32:24;;;;;;;4.13;2.60;;;;;;;17.56;84.96;99140.56;5003854;28;20210;-77
2023/06/06 01:35:01;;;;;;;4.27;2.80;;;;;;;17.37;86.54;99141.47;5009006;28;20194;-77
2023/06/06 01:37:40;;;;;;;5.03;2.93;;;;;;;17.46;87.11;99132.56;5009725;28;20218;-77
2023/06/06 01:40:12;;;;;;;4.23;2.77;;;;;;;17.48;86.22;99127.06;5003808;28;20277;-77
2023/06/06 01:42:45;;;;;;;6.83;3.00;;;;;;;17.62;85.52;99134.66;5008364;28;20206;-78
2023/06/06 01:45:17;;;;;;;3.47;2.60;;;;;;;17.61;84.89;99132.97;5006334;28;20218;-77
2023/06/06 01:47:46;;;;;;;6.03;2.73;;;;;;;17.62;83.76;99131.97;5004738;28;20205;-77
2023/06/06 01:50:15;;;;;;;4.77;2.77;;;;;;;17.37;85.27;99129.88;5010850;28;20202;-77
2023/06/06 01:52:45;;;;;;;5.50;2.77;;;;;;;17.33;86.69;99133.84;5003969;28;20214;-77
2023/06/06 01:55:14;;;;;;;3.93;2.60;;;;;;;17.31;88.22;99134.00;5009408;28;20204;-77
2023/06/06 01:57:43;;;;;;;4.57;2.97;;;;;;;17.18;90.76;99136.13;5006158;28;20230;-77
2023/06/06 02:00:12;;;;;;;5.30;2.93;;;;;;;17.20;90.83;99138.66;5010300;28;20236;-77
2023/06/06 02:02:41;;;;;;;4.63;2.73;;;;;;;17.01;91.06;99140.31;5013492;28;20658;-77
2023/06/06 02:05:14;;;;;;;7.40;3.00;;;;;;;16.99;89.20;99136.94;5008780;28;20229;-77
2023/06/06 02:07:42;;;;;;;3.07;2.70;;;;;;;16.93;89.73;99137.50;5006981;28;20194;-77
2023/06/06 02:10:13;;;;;;;7.13;2.90;;;;;;;16.76;90.81;99136.31;5010109;28;20273;-77
2023/06/06 02:12:42;;;;;;;7.43;3.30;;;;;;;16.79;90.47;99136.06;5016103;28;20195;-77
2023/06/06 02:15:13;;;;;;;7.53;3.27;;;;;;;16.65;91.74;99139.09;5007451;28;20590;-77
2023/06/06 02:17:42;;;;;;;5.73;2.80;;;;;;;16.62;93.57;99144.72;5010841;28;20269;-77
2023/06/06 02:20:10;;;;;;;4.90;2.70;;;;;;;16.48;94.94;99139.75;5002521;28;20290;-77
2023/06/06 02:22:39;;;;;;;5.53;2.77;;;;;;;16.27;95.87;99145.16;5013116;28;20202;-77
2023/06/06 02:25:08;;;;;;;6.23;3.13;;;;;;;16.38;94.22;99144.22;5007687;28;20229;-77
2023/06/06 02:27:38;;;;;;;5.90;2.90;;;;;;;16.49;92.50;99142.28;5015755;28;20229;-77
2023/06/06 02:30:09;;;;;;;4.77;3.00;;;;;;;16.42;93.25;99143.81;5026396;28;20197;-76
2023/06/06 02:32:37;;;;;;;3.27;2.77;;;;;;;16.50;92.49;99144.00;5024527;28;20285;-77
2023/06/06 02:35:06;;;;;;;4.90;2.87;;;;;;;16.49;92.72;99149.44;5028940;28;20256;-77
2023/06/06 02:37:35;;;;;;;4.00;2.87;;;;;;;16.35;94.07;99152.50;5026179;28;20673;-77
2023/06/06 02:40:08;;;;;;;3.63;2.80;;;;;;;16.35;94.46;99148.00;5028021;28;20598;-77
2023/06/06 02:42:39;;;;;;;4.27;2.63;;;;;;;16.33;94.59;99155.31;5026109;28;20243;-77
2023/06/06 02:45:09;;;;;;;5.00;2.77;;;;;;;16.05;96.41;99143.53;5029079;28;20198;-77
2023/06/06 02:47:38;;;;;;;5.70;2.93;;;;;;;16.17;96.58;99152.28;5032334;28;20194;-77
2023/06/06 02:50:08;;;;;;;5.00;2.70;;;;;;;16.08;97.98;99155.75;5028100;28;20197;-77
2023/06/06 02:52:38;;;;;;;4.70;3.00;;;;;;;15.81;100.00;99151.81;4974112;28;20224;-77
2023/06/06 02:55:07;;;;;;;6.93;2.80;;;;;;;15.78;100.00;99145.91;4969790;28;20210;-77
2023/06/06 02:57:36;;;;;;;5.97;2.93;;;;;;;15.72;100.00;99148.09;4970332;28;20228;-77
2023/06/06 03:00:11;;;;;;;5.27;3.13;;;;;;;15.68;100.00;99145.84;4969138;28;20210;-79
2023/06/06 03:02:41;;;;;;;5.67;2.90;;;;;;;15.42;100.00;99151.50;4969938;28;20238;-76
2023/06/06 03:05:12;;;;;;;4.17;3.00;;;;;;;15.49;100.00;99143.84;4909683;29;20201;-77
2023/06/06 03:07:43;;;;;;;5.57;3.27;;;;;;;15.55;100.00;99146.00;4911748;29;20213;-77
2023/06/06 03:10:11;;;;;;;6.90;2.90;;;;;;;15.67;100.00;99150.34;4913934;29;20657;-77
2023/06/06 03:12:39;;;;;;;3.47;3.07;;;;;;;15.62;100.00;99151.69;4910909;29;20216;-77
2023/06/06 03:15:11;;;;;;;5.30;2.90;;;;;;;15.67;100.00;99149.50;4912365;29;20542;-77
2023/06/06 03:17:40;;;;;;;6.43;2.90;;;;;;;15.72;100.00;99139.25;4916151;29;20693;-77
2023/06/06 03:20:12;;;;;;;7.63;2.97;;;;;;;15.51;100.00;99144.56;4912159;29;20210;-77
2023/06/06 03:22:40;;;;;;;5.57;3.20;;;;;;;15.55;100.00;99142.50;4918691;28;20209;-77
2023/06/06 03:25:09;;;;;;;4.30;3.03;;;;;;;15.41;100.00;99149.81;4966048;28;20266;-77
2023/06/06 03:27:38;;;;;;;5.77;2.90;;;;;;;15.61;100.00;99150.84;4952999;28;20228;-77
2023/06/06 03:30:11;;;;;;;4.73;2.80;;;;;;;15.48;100.00;99154.66;4985999;28;20222;-77
2023/06/06 03:32:39;;;;;;;5.73;2.87;;;;;;;15.45;100.00;99159.28;5011139;28;20285;-77
2023/06/06 03:35:08;;;;;;;5.73;2.90;;;;;;;15.29;100.00;99156.19;5004585;28;20278;-77
2023/06/06 03:37:36;;;;;;;3.73;2.97;;;;;;;15.21;100.00;99165.81;5008172;28;20304;-77
2023/06/06 03:40:06;;;;;;;4.73;3.13;;;;;;;15.25;100.00;99168.13;5005866;28;20324;-77
2023/06/06 03:42:34;;;;;;;7.97;3.20;;;;;;;15.21;100.00;99165.81;5003569;28;20199;-76
2023/06/06 03:45:03;;;;;;;6.23;3.27;;;;;;;15.17;100.00;99167.91;5006297;28;20206;-77
2023/06/06 03:47:33;;;;;;;5.67;3.03;;;;;;;14.85;100.00;99174.03;5006879;28;20233;-77
2023/06/06 03:50:01;;;;;;;8.50;3.23;;;;;;;14.99;100.00;99169.41;5003735;28;20626;-76
2023/06/06 03:52:30;;;;;;;6.83;3.13;;;;;;;14.73;100.00;99171.53;5008598;28;20297;-77
2023/06/06 03:54:58;;;;;;;5.60;3.07;;;;;;;14.74;100.00;99167.88;5002987;28;20216;-77
2023/06/06 03:57:27;;;;;;;6.13;3.20;;;;;;;14.60;100.00;99159.19;5008061;28;20214;-76
2023/06/06 03:59:56;;;;;;;4.77;2.97;;;;;;;14.67;100.00;99161.34;5004257;28;20205;-77
2023/06/06 04:02:25;;;;;;;4.70;3.37;;;;;;;14.73;100.00;99172.38;5014100;28;20285;-77
2023/06/06 04:04:55;;;;;;;4.57;3.13;;;;;;;14.77;100.00;99168.50;5004182;28;20244;-77
2023/06/06 04:07:28;;;;;;;7.07;2.97;;;;;;;14.92;100.00;99174.41;5003463;28;20214;-76
2023/06/06 04:09:57;;;;;;;6.47;3.40;;;;;;;14.94;100.00;99177.78;5002142;28;20213;-77
2023/06/06 04:12:26;;;;;;;4.83;3.13;;;;;;;15.00;100.00;99179.94;5007992;28;20203;-77
2023/06/06 04:14:54;;;;;;;4.97;2.87;;;;;;;14.96;100.00;99175.84;5005135;28;20209;-77
2023/06/06 04:17:24;;;;;;;5.10;3.30;;;;;;;15.03;100.00;99177.03;5013848;28;20218;-76
2023/06/06 04:19:52;;;;;;;5.43;3.20;;;;;;;15.13;100.00;99177.97;5009722;28;20217;-77
2023/06/06 04:22:24;;;;;;;6.70;3.17;;;;;;;15.19;100.00;99176.63;5009641;28;20195;-77
2023/06/06 04:24:52;;;;;;;7.27;3.20;;;;;;;15.27;100.00;99176.84;5011180;28;20210;-76
2023/06/06 04:27:23;;;;;;;5.23;3.03;;;;;;;15.23;100.00;99186.06;5013963;28;20304;-76
2023/06/06 04:29:52;;;;;;;4.60;3.20;;;;;;;15.35;100.00;99182.38;5027036;28;20194;-77
2023/06/06 04:32:21;;;;;;;8.40;2.90;;;;;;;15.40;100.00;99182.00;5025500;28;20194;-77
2023/06/06 04:34:52;;;;;;;5.90;3.33;;;;;;;15.65;100.00;99180.81;5027214;28;20198;-77
2023/06/06 04:37:22;;;;;;;5.00;3.00;;;;;;;15.53;100.00;99171.97;5027499;28;20218;-77
2023/06/06 04:39:52;;;;;;;4.00;2.60;;;;;;;15.62;100.00;99181.06;5024158;28;20213;-77
2023/06/06 04:42:23;;;;;;;6.87;2.87;;;;;;;15.56;100.00;99178.91;5024153;28;20343;-77
2023/06/06 04:44:52;;;;;;;3.97;3.20;;;;;;;15.64;100.00;99179.13;5028517;28;20216;-77
2023/06/06 04:47:20;;;;;;;7.47;3.73;;;;;;;15.68;100.00;99191.22;5027639;28;20206;-77
2023/06/06 04:49:51;;;;;;;6.83;3.40;;;;;;;15.77;100.00;99184.28;5032916;28;20190;-77
2023/06/06 04:52:19;;;;;;;5.03;3.30;;;;;;;15.76;100.00;99180.75;5029169;28;20628;-77
2023/06/06 04:54:51;;;;;;;5.63;3.00;;;;;;;15.79;100.00;99179.63;5032999;28;20193;-77
2023/06/06 04:57:19;;;;;;;7.07;3.40;;;;;;;15.77;100.00;99181.59;5028953;28;20743;-77
2023/06/06 04:59:50;;;;;;;4.33;3.20;;;;;;;15.69;100.00;99175.06;5027516;28;20193;-77
2023/06/06 05:02:21;;;;;;;5.40;3.50;;;;;;;15.81;100.00;99183.00;5027119;28;20198;-77
2023/06/06 05:04:52;;;;;;;5.33;3.33;;;;;;;15.85;100.00;99185.31;5026473;28;20202;-77
2023/06/06 05:07:23;;;;;;;6.17;3.40;;;;;;;15.84;100.00;99188.97;5025242;28;20208;-77
2023/06/06 05:09:55;;;;;;;7.33;3.17;;;;;;;15.89;100.00;99184.06;5026011;28;20268;-77
2023/06/06 05:12:25;;;;;;;5.30;3.43;;;;;;;15.78;100.00;99184.13;5030049;28;20194;-77
2023/06/06 05:14:53;;;;;;;5.47;3.57;;;;;;;15.85;100.00;99187.13;5026088;28;20232;-77
2023/06/06 05:17:23;;;;;;;4.40;3.23;;;;;;;15.86;100.00;99184.34;5023343;28;20205;-77
2023/06/06 05:19:51;;;;;;;4.83;3.63;;;;;;;16.04;100.00;99189.94;5027106;28;20198;-77
2023/06/06 05:22:20;;;;;;;5.00;3.50;;;;;;;16.13;100.00;99190.97;5025617;28;20201;-77
2023/06/06 05:24:49;;;;;;;4.73;3.37;;;;;;;16.19;100.00;99190.41;5022080;28;20228;-77
2023/06/06 05:27:19;;;;;;;8.67;3.63;;;;;;;16.17;100.00;99190.56;5027025;28;20230;-77
2023/06/06 05:29:47;;;;;;;7.27;3.70;;;;;;;16.29;100.00;99189.47;5028372;28;20277;-77
2023/06/06 05:32:16;;;;;;;8.13;3.70;;;;;;;16.24;100.00;99190.88;5020470;28;20209;-77
2023/06/06 05:34:45;;;;;;;7.47;3.90;;;;;;;16.39;100.00;99194.88;5026093;28;20194;-77
2023/06/06 05:37:13;;;;;;;5.00;3.40;;;;;;;16.48;100.00;99195.91;5026784;28;20201;-77
2023/06/06 05:39:42;;;;;;;5.43;3.33;;;;;;;16.50;100.00;99196.59;5032542;28;20615;-77
2023/06/06 05:42:10;;;;;;;6.63;3.13;;;;;;;16.52;100.00;99202.69;5027099;28;20215;-77
2023/06/06 05:44:43;;;;;;;5.87;3.23;;;;;;;16.62;100.00;99198.22;5021609;28;20190;-77
2023/06/06 05:47:14;;;;;;;4.60;3.03;;;;;;;16.69;100.00;99191.34;5022029;28;20197;-77
2023/06/06 05:49:43;;;;;;;12.77;4.10;;;;;;;16.74;100.00;99188.28;5029304;28;20202;-77
2023/06/06 05:52:12;;;;;;;5.07;3.30;;;;;;;16.84;100.00;99197.19;5025521;28;20194;-77
2023/06/06 05:54:41;;;;;;;3.63;2.73;;;;;;;16.99;100.00;99194.97;5025978;28;20194;-76
2023/06/06 05:57:22;;;;;;;6.33;3.20;;;;;;;17.00;100.00;99204.69;5027991;28;20202;-77
2023/06/06 05:59:52;;;;;;;6.50;2.90;;;;;;;17.02;100.00;99200.88;5025568;28;20221;-77
2023/06/06 06:02:20;;;;;;;6.40;3.13;;;;;;;17.20;100.00;99195.69;5021588;28;20198;-77
2023/06/06 06:04:52;;;;;;;9.53;3.17;;;;;;;17.31;100.00;99192.03;5018909;28;20202;-77
2023/06/06 06:07:23;;;;;;;9.83;2.90;;;;;;;17.32;100.00;99196.41;5024248;28;20201;-77
2023/06/06 06:09:52;;;;;;;4.97;3.00;;;;;;;17.37;100.00;99195.03;5028302;28;20225;-77
2023/06/06 06:12:20;;;;;;;6.37;3.20;;;;;;;17.55;100.00;99192.44;5026610;28;20222;-77
2023/06/06 06:14:49;;;;;;;2.93;2.30;;;;;;;17.50;100.00;99192.06;5028225;28;20190;-77
2023/06/06 06:17:20;;;;;;;4.13;2.80;;;;;;;17.42;100.00;99190.06;5032123;28;20201;-77
2023/06/06 06:19:49;;;;;;;3.93;2.90;;;;;;;17.54;100.00;99195.28;5023104;28;20248;-77
2023/06/06 06:22:17;;;;;;;6.67;2.93;;;;;;;17.65;100.00;99189.78;5024185;28;20236;-77
2023/06/06 06:24:45;;;;;;;5.03;2.60;;;;;;;17.77;100.00;99191.38;5024011;28;20248;-77
2023/06/06 06:27:14;;;;;;;4.57;2.47;;;;;;;17.67;100.00;99190.50;5028139;28;20228;-77
2023/06/06 06:29:42;;;;;;;5.97;2.60;;;;;;;17.86;100.00;99182.47;5024277;28;20236;-77
2023/06/06 06:32:10;;;;;;;4.50;2.67;;;;;;;18.00;100.00;99189.19;5027940;28;20221;-77
2023/06/06 06:34:40;;;;;;;7.80;3.20;;;;;;;18.10;100.00;99189.16;5027961;28;20276;-77
2023/06/06 06:37:09;;;;;;;4.93;2.97;;;;;;;18.30;100.00;99193.47;5026608;28;20195;-78
2023/06/06 06:39:37;;;;;;;3.10;2.70;;;;;;;18.23;100.00;99195.06;5026454;28;20249;-77
2023/06/06 06:42:07;;;;;;;3.33;2.90;;;;;;;18.29;100.00;99198.00;5031756;28;20198;-77
2023/06/06 06:44:35;;;;;;;6.10;2.60;;;;;;;18.27;100.00;99189.25;5031418;28;20197;-77
2023/06/06 06:47:04;;;;;;;3.77;2.60;;;;;;;18.42;100.00;99194.97;5024623;28;20198;-77
2023/06/06 06:49:33;;;;;;;3.30;2.70;;;;;;;18.64;100.00;99198.31;5025294;28;20244;-78
2023/06/06 06:52:03;;;;;;;5.73;2.80;;;;;;;18.76;98.85;99195.31;5025366;28;20204;-77
2023/06/06 06:54:35;;;;;;;4.37;2.60;;;;;;;19.11;95.50;99196.38;5027115;28;20205;-76
2023/06/06 06:57:04;;;;;;;8.27;2.83;;;;;;;19.13;93.86;99194.38;5024590;28;20204;-76
2023/06/06 06:59:33;;;;;;;5.30;2.97;;;;;;;19.24;92.57;99198.69;5026915;28;20225;-76
2023/06/06 07:02:02;;;;;;;7.13;2.87;;;;;;;19.17;92.10;99198.44;5032266;28;20212;-77
2023/06/06 07:04:30;;;;;;;4.77;3.03;;;;;;;19.35;90.04;99198.47;5023535;28;20229;-77
2023/06/06 07:06:59;;;;;;;6.60;3.00;;;;;;;19.46;89.29;99206.28;5028376;28;20198;-77
2023/06/06 07:09:29;;;;;;;4.78;3.20;;;;;;;19.42;84.19;99203.06;5027970;28;20205;-77
2023/06/06 07:11:59;;;;;;;5.50;3.10;;;;;;;19.67;81.70;99209.53;5026307;28;20221;-77
2023/06/06 07:14:29;;;;;;;6.00;3.10;;;;;;;20.01;77.12;99206.09;5026863;28;20208;-77
2023/06/06 07:16:57;;;;;;;4.73;2.90;;;;;;;20.09;75.43;99206.16;5027359;28;20225;-77
2023/06/06 07:19:26;;;;;;;6.97;3.00;;;;;;;20.19;73.67;99209.59;5026772;28;20229;-77
2023/06/06 07:21:56;;;;;;;7.75;3.20;;;;;;;20.14;76.62;99203.84;5031898;28;20194;-77
2023/06/06 07:24:24;;;;;;;9.80;2.90;;;;;;;20.22;72.44;99198.50;5032107;28;20272;-77
2023/06/06 07:26:54;;;;;;;8.23;3.10;;;;;;;20.17;73.19;99200.84;5026947;28;20253;-77
2023/06/06 07:29:23;;;;;;;4.95;2.75;;;;;;;20.37;71.46;99204.16;5028358;28;20198;-77
2023/06/06 07:31:51;;;;;;;4.57;2.85;;;;;;;20.60;66.41;99201.78;5029288;28;20645;-76
2023/06/06 07:34:19;;;;;;;7.15;3.38;;;;;;;20.81;62.71;99194.13;5026724;28;20204;-77
2023/06/06 07:36:48;;;;;;;5.80;3.38;;;;;;;20.80;64.28;99186.22;5028992;28;20209;-77
2023/06/06 07:39:16;;;;;;;5.88;3.03;;;;;;;21.09;63.11;99196.56;5030321;28;20220;-77
2023/06/06 07:41:45;;;;;;;8.10;2.95;;;;;;;21.08;64.59;99193.03;5026756;28;20200;-77
2023/06/06 07:44:16;;;;;;;8.48;3.25;;;;;;;20.86;63.82;99194.50;5027083;28;20218;-77
2023/06/06 07:46:44;;;;;;;9.80;3.60;;;;;;;20.90;64.68;99191.47;5032810;28;20238;-77
2023/06/06 07:49:13;;;;;;;7.22;3.33;;;;;;;21.19;65.50;99183.81;5025671;28;20217;-77
2023/06/06 07:51:41;;;;;;;5.78;2.90;;;;;;;21.12;64.08;99189.00;5027678;28;20198;-77
2023/06/06 07:54:11;;;;;;;4.18;2.88;;;;;;;21.32;63.87;99184.19;5026853;28;20225;-77
2023/06/06 07:56:40;;;;;;;6.35;3.10;;;;;;;21.48;63.95;99190.63;5023906;28;20194;-77
2023/06/06 07:59:10;;;;;;;5.85;2.95;;;;;;;21.42;62.41;99189.41;5031418;28;20202;-77
2023/06/06 08:01:40;;;;;;;7.28;3.47;;;;;;;21.53;62.96;99186.44;5025993;28;20208;-77
2023/06/06 08:04:09;;;;;;;6.47;2.97;;;;;;;21.32;62.42;99188.72;5027191;28;20205;-77
2023/06/06 08:06:38;;;;;;;4.10;3.13;;;;;;;21.67;60.51;99191.13;5017860;28;20198;-77
2023/06/06 08:09:06;;;;;;;7.30;3.17;;;;;;;21.60;62.56;99190.13;5029387;28;20650;-76
2023/06/06 08:11:36;;;;;;;9.18;3.78;;;;;;;21.67;62.04;99196.53;4987077;28;20203;-77
2023/06/06 08:14:05;;;;;;;4.60;3.45;;;;;;;22.05;57.45;99196.84;4986160;28;20545;-77
2023/06/06 08:16:33;;;;;;;4.75;3.25;;;;;;;22.24;55.38;99196.50;4985357;28;20203;-77
2023/06/06 08:19:04;;;;;;;4.15;3.17;;;;;;;22.48;57.07;99194.75;4984159;28;20203;-77
2023/06/06 08:21:36;;;;;;;4.60;3.20;;;;;;;22.59;56.31;99190.88;4982880;28;20202;-77
2023/06/06 08:24:05;;;;;;;4.05;2.80;;;;;;;22.75;56.50;99196.19;4979951;28;20239;-77
2023/06/06 08:26:34;;;;;;;6.53;3.15;;;;;;;22.87;54.19;99199.38;4986657;28;20224;-77
2023/06/06 08:29:03;;;;;;;11.32;3.47;;;;;;;22.76;55.14;99193.31;4989184;28;20193;-77
2023/06/06 08:31:31;;;;;;;6.32;3.13;;;;;;;22.91;56.79;99196.16;5025584;28;20229;-77
2023/06/06 08:34:01;;;;;;;5.72;3.10;;;;;;;22.73;55.37;99198.22;5026388;28;20201;-77
2023/06/06 08:36:31;;;;;;;9.43;3.35;;;;;;;22.84;54.20;99190.59;5018889;28;20198;-77
2023/06/06 08:39:03;;;;;;;4.15;3.75;;;;;;;22.87;54.02;99188.56;5030385;28;20201;-77
2023/06/06 08:41:33;;;;;;;20.13;14.65;;;;;;;22.93;56.35;99188.72;5030195;28;20213;-78
2023/06/06 08:44:03;;;;;;;9.15;5.35;;;;;;;23.36;53.76;99189.16;5025594;28;20204;-77
2023/06/06 08:46:34;;;;;;;5.88;3.03;;;;;;;23.58;52.17;99188.31;5027696;28;20225;-77
2023/06/06 08:49:05;;;;;;;6.75;3.50;;;;;;;23.41;54.12;99184.88;5033040;28;20202;-77
2023/06/06 08:51:37;;;;;;;8.90;3.15;;;;;;;23.57;51.86;99188.50;5025990;28;20194;-77
2023/06/06 08:54:06;;;;;;;4.60;2.92;;;;;;;23.57;51.83;99192.03;5025828;28;20212;-78
2023/06/06 08:56:37;;;;;;;4.32;3.05;;;;;;;23.75;50.63;99201.75;5025135;28;20197;-77
2023/06/06 08:59:05;;;;;;;4.95;3.17;;;;;;;23.92;51.67;99189.72;4989327;28;20593;-77
2023/06/06 09:01:36;;;;;;;5.43;2.97;;;;;;;24.05;50.05;99197.25;4986054;28;20311;-77
2023/06/06 09:04:07;;;;;;;4.90;3.33;;;;;;;24.05;47.83;99198.09;4986018;28;20209;-77
2023/06/06 09:06:43;;;;;;;5.22;3.17;;;;;;;23.95;48.75;99200.22;4989686;28;20194;-77
2023/06/06 09:09:14;;;;;;;3.70;2.88;;;;;;;24.18;47.45;99201.00;4975154;28;20395;-77
2023/06/06 09:11:45;;;;;;;5.90;3.40;;;;;;;24.15;45.63;99200.53;4987874;28;20282;-78
2023/06/06 09:14:13;;;;;;;6.10;3.10;;;;;;;24.32;46.97;99202.09;4987233;28;20199;-77
2023/06/06 09:16:43;;;;;;;5.18;3.13;;;;;;;24.32;46.74;99193.97;4997895;28;20281;-77
2023/06/06 09:19:11;;;;;;;6.40;3.15;;;;;;;24.78;45.92;99199.16;5024899;28;20259;-77
2023/06/06 09:21:41;;;;;;;5.63;2.97;;;;;;;24.51;46.89;99197.97;5025036;28;20232;-77
2023/06/06 09:24:10;;;;;;;4.90;3.05;;;;;;;24.93;46.93;99191.03;5020052;28;20205;-77
2023/06/06 09:26:40;;;;;;;4.53;2.50;;;;;;;24.88;45.57;99194.28;5019221;28;20641;-78
2023/06/06 09:29:11;;;;;;;7.82;3.60;;;;;;;24.35;45.03;99195.44;5026377;28;20298;-77
2023/06/06 09:31:40;;;;;;;3.70;3.17;;;;;;;24.99;45.01;99188.38;5032471;28;20656;-77
2023/06/06 09:34:10;;;;;;;4.97;2.90;;;;;;;25.12;44.83;99187.75;5024234;28;20208;-78
2023/06/06 09:36:45;;;;;;;7.72;3.42;;;;;;;25.16;45.34;99174.66;5027871;28;20193;-77
2023/06/06 09:39:15;;;;;;;4.40;3.30;;;;;;;25.37;43.72;99185.50;5029986;28;20198;-77
2023/06/06 09:41:45;;;;;;;7.80;3.13;;;;;;;25.53;43.79;99182.56;5029347;28;20241;-77
2023/06/06 09:44:19;;;;;;;4.95;3.28;;;;;;;25.93;43.25;99174.81;5020180;28;20301;-77
2023/06/06 09:46:48;;;;;;;3.97;3.40;;;;;;;25.46;43.90;99181.63;4986895;28;20195;-77
2023/06/06 09:49:17;;;;;;;4.45;3.47;;;;;;;25.68;44.28;99179.78;4990587;28;20198;-77
2023/06/06 09:51:47;;;;;;;4.72;3.20;;;;;;;25.73;43.87;99181.94;4988410;28;20199;-77
2023/06/06 09:54:17;;;;;;;6.45;3.22;;;;;;;26.12;42.11;99170.56;4985506;28;20211;-77
2023/06/06 09:56:49;;;;;;;6.32;3.13;;;;;;;26.24;43.27;99168.97;4990823;28;20206;-77
2023/06/06 09:59:17;;;;;;;5.55;3.50;;;;;;;25.92;44.15;99157.69;4983267;28;20206;-77
2023/06/06 10:01:51;;;;;;;7.72;3.40;;;;;;;26.22;44.49;99163.75;4982411;28;20238;-78
2023/06/06 10:04:19;;;;;;;6.97;3.70;;;;;;;26.37;41.78;99168.25;4993078;28;20236;-78
2023/06/06 10:06:51;;;;;;;5.05;3.60;;;;;;;26.58;40.02;99170.91;5026604;28;20222;-77
2023/06/06 10:09:20;;;;;;;4.07;3.22;;;;;;;26.81;39.72;99168.69;5028300;28;20202;-78
2023/06/06 10:11:51;;;;;;;3.80;3.28;;;;;;;26.80;38.79;99164.31;5029631;28;20216;-77
2023/06/06 10:14:20;;;;;;;3.35;3.05;;;;;;;26.98;37.80;99163.75;5025979;28;20216;-77
2023/06/06 10:16:48;;;;;;;4.40;3.05;;;;;;;27.12;38.11;99161.09;5030453;28;20190;-77
2023/06/06 10:19:21;;;;;;;9.88;3.30;;;;;;;26.97;38.92;99166.69;5032908;28;20202;-78
2023/06/06 10:21:53;;;;;;;6.60;3.30;;;;;;;27.21;38.92;99166.16;5027737;28;20229;-77
2023/06/06 10:24:23;;;;;;;4.15;3.42;;;;;;;27.43;37.04;99169.56;5027362;28;20280;-78
2023/06/06 10:26:57;;;;;;;4.25;3.10;;;;;;;27.16;37.88;99160.50;5028571;28;20292;-77
2023/06/06 10:29:31;;;;;;;5.65;3.10;;;;;;;27.63;38.88;99158.69;5030908;28;20189;-78
2023/06/06 10:32:12;;;;;;;4.30;3.15;;;;;;;27.98;36.26;99158.50;5026713;28;20361;-78
2023/06/06 10:34:44;;;;;;;3.42;3.05;;;;;;;28.12;36.23;99171.94;5027053;28;20205;-77
2023/06/06 10:37:20;;;;;;;5.65;3.30;;;;;;;28.27;36.06;99163.50;5026258;28;20208;-78
2023/06/06 10:39:59;;;;;;;4.35;3.25;;;;;;;28.19;35.29;99158.31;5031791;28;20207;-77
2023/06/06 10:42:36;;;;;;;3.65;2.90;;;;;;;28.38;36.04;99154.75;5029675;28;20224;-77
2023/06/06 10:45:06;;;;;;;4.93;2.80;;;;;;;28.29;34.73;99156.00;5030145;28;20208;-78
2023/06/06 10:47:39;;;;;;;5.55;3.60;;;;;;;28.39;35.45;99150.97;5028539;28;20197;-77
2023/06/06 10:50:22;;;;;;;5.22;2.97;;;;;;;28.48;33.98;99154.28;5030590;28;20198;-77
2023/06/06 10:52:55;;;;;;;3.83;2.78;;;;;;;28.18;32.59;99145.72;5032246;28;20229;-77
2023/06/06 10:55:44;;;;;;;3.65;3.13;;;;;;;28.62;32.74;99153.19;5031389;28;20679;-77
2023/06/06 10:58:27;;;;;;;4.78;3.00;;;;;;;28.40;33.95;99152.63;4951826;29;20197;-77
2023/06/06 11:01:01;;;;;;;4.00;3.00;;;;;;;27.89;34.94;99157.88;4944148;29;20248;-78
2023/06/06 11:03:40;;;;;;;5.60;3.30;;;;;;;27.43;35.36;99153.25;4952276;29;20218;-78
2023/06/06 11:06:15;;;;;;;4.50;3.08;;;;;;;27.31;35.94;99154.88;4951229;29;20204;-77
2023/06/06 11:08:47;;;;;;;4.03;3.15;;;;;;;26.98;36.42;99157.47;4929773;29;20193;-77
2023/06/06 11:11:20;;;;;;;5.53;3.10;;;;;;;26.55;38.50;99154.16;4928156;29;20345;-77
2023/06/06 11:13:57;;;;;;;4.07;3.05;;;;;;;26.39;39.35;99150.72;4931156;29;20201;-77
2023/06/06 11:17:01;;;;;;;3.63;2.97;;;;;;;26.44;39.92;99156.41;4961254;28;20195;-77
2023/06/06 11:19:39;;;;;;;5.40;3.47;;;;;;;27.23;38.19;99158.63;4983427;28;20203;-76
2023/06/06 11:22:20;;;;;;;5.93;3.10;;;;;;;27.22;37.80;99150.69;4988162;28;20246;-76
2023/06/06 11:24:50;;;;;;;6.85;3.10;;;;;;;27.92;36.90;99161.03;4989785;28;20226;-77
2023/06/06 11:27:20;;;;;;;7.25;3.33;;;;;;;27.95;36.48;99149.72;4986062;28;20227;-77
2023/06/06 11:29:49;;;;;;;3.80;3.03;;;;;;;27.99;36.06;99158.34;4979127;28;20202;-77
2023/06/06 11:32:17;;;;;;;3.10;2.80;;;;;;;28.47;35.05;99156.19;4982855;28;20237;-77
2023/06/06 11:34:45;;;;;;;4.80;2.90;;;;;;;28.23;35.84;99159.53;5028545;28;20652;-77
2023/06/06 11:37:14;;;;;;;4.55;3.25;;;;;;;28.33;36.19;99159.97;5031479;28;20580;-77
2023/06/06 11:39:42;;;;;;;4.65;3.05;;;;;;;29.01;34.65;99148.66;5023291;28;20202;-77
2023/06/06 11:42:19;;;;;;;3.22;2.78;;;;;;;29.49;34.22;99149.03;5023931;28;20700;-77
2023/06/06 11:44:48;;;;;;;4.20;3.00;;;;;;;28.99;33.88;99154.34;5030088;28;20197;-77
2023/06/06 11:47:16;;;;;;;8.45;3.17;;;;;;;28.67;34.48;99142.50;5022981;28;20661;-77